Time;durP1;ratioP1;P1;durP2;ratioP2;P2;SDS_P1;SDS_P2;PMS_P1;PMS_P2;Temp;Humidity;BMP_temperature;BMP_pressure;BME280_temperature;BME280_humidity;BME280_pressure;Samples;Min_cycle;Max_cycle;Signal;HPM_P1;HPM_P2
2021/07/02 00:00:25;;;;;;;26.98;14.90;;;;;;;;;;2047705;28;20683;-55
2021/07/02 00:01:25;;;;;;;32.08;16.52;;;;;;;;;;2042550;29;20184;-58
2021/07/02 00:02:26;;;;;;;25.45;15.85;;;;;;;;;;2070699;22;20221;-61
2021/07/02 00:03:26;;;;;;;23.50;13.88;;;;;;;;;;2062320;28;20594;-65
2021/07/02 00:04:26;;;;;;;28.00;15.18;;;;;;;;;;2055702;28;20179;-64
2021/07/02 00:05:26;;;;;;;28.30;14.88;;;;;;;;;;2054580;28;20640;-63
2021/07/02 00:06:27;;;;;;;32.17;15.10;;;;;;;;;;2054369;28;20198;-63
2021/07/02 00:07:27;;;;;;;31.13;15.32;;;;;;;;;;2054254;28;20182;-64
2021/07/02 00:08:28;;;;;;;32.70;14.48;;;;;;;;;;2054607;28;20166;-62
2021/07/02 00:09:28;;;;;;;25.70;16.15;;;;;;;;;;2056416;28;20194;-63
2021/07/02 00:10:28;;;;;;;31.73;15.45;;;;;;;;;;2055829;28;20213;-63
2021/07/02 00:11:29;;;;;;;30.55;16.13;;;;;;;;;;2056049;28;20217;-64
2021/07/02 00:12:29;;;;;;;36.25;16.00;;;;;;;;;;2055599;28;20194;-65
2021/07/02 00:13:29;;;;;;;36.95;16.35;;;;;;;;;;2059041;28;22263;-64
2021/07/02 00:14:29;;;;;;;29.23;15.55;;;;;;;;;;2059667;28;20188;-65
2021/07/02 00:15:30;;;;;;;31.75;16.48;;;;;;;;;;2063982;28;20162;-64
2021/07/02 00:16:33;;;;;;;31.60;15.95;;;;;;;;;;2059053;28;20166;-64
2021/07/02 00:17:33;;;;;;;30.33;15.20;;;;;;;;;;2057762;28;20194;-64
2021/07/02 00:18:33;;;;;;;27.73;15.40;;;;;;;;;;2062738;28;20724;-64
2021/07/02 00:19:34;;;;;;;37.30;15.77;;;;;;;;;;2057789;28;20178;-64
2021/07/02 00:20:34;;;;;;;30.02;14.43;;;;;;;;;;2056934;28;20179;-65
2021/07/02 00:21:34;;;;;;;31.33;14.88;;;;;;;;;;2062172;28;20536;-64
2021/07/02 00:22:35;;;;;;;26.95;14.30;;;;;;;;;;2057927;28;20206;-64
2021/07/02 00:23:35;;;;;;;27.85;15.35;;;;;;;;;;2055580;28;20186;-63
2021/07/02 00:24:35;;;;;;;30.05;15.18;;;;;;;;;;2049951;28;20202;-63
2021/07/02 00:25:38;;;;;;;33.42;14.20;;;;;;;;;;2063292;28;20185;-66
2021/07/02 00:26:39;;;;;;;27.58;14.55;;;;;;;;;;2052591;28;20678;-64
2021/07/02 00:27:39;;;;;;;29.88;14.75;;;;;;;;;;2057596;28;20741;-64
2021/07/02 00:28:40;;;;;;;30.60;15.38;;;;;;;;;;2056428;28;20217;-62
2021/07/02 00:29:40;;;;;;;27.35;14.93;;;;;;;;;;2064288;28;20697;-64
2021/07/02 00:30:40;;;;;;;28.80;14.40;;;;;;;;;;2072480;28;20283;-64
2021/07/02 00:31:41;;;;;;;27.73;15.00;;;;;;;;;;2079799;28;20211;-64
2021/07/02 00:32:41;;;;;;;29.38;14.95;;;;;;;;;;2056461;28;20754;-63
2021/07/02 00:33:41;;;;;;;27.73;14.80;;;;;;;;;;2064919;28;20170;-62
2021/07/02 00:34:41;;;;;;;33.58;15.23;;;;;;;;;;2057778;28;20170;-62
2021/07/02 00:35:42;;;;;;;27.60;14.02;;;;;;;;;;2064336;28;20184;-60
2021/07/02 00:36:42;;;;;;;31.42;14.18;;;;;;;;;;2064808;28;20170;-63
2021/07/02 00:37:43;;;;;;;36.75;15.65;;;;;;;;;;2065739;28;20232;-63
2021/07/02 00:38:43;;;;;;;23.20;14.10;;;;;;;;;;2057030;28;20197;-63
2021/07/02 00:39:43;;;;;;;31.38;14.85;;;;;;;;;;2056077;28;20532;-64
2021/07/02 00:40:43;;;;;;;24.85;15.55;;;;;;;;;;2040555;29;20178;-64
2021/07/02 00:41:44;;;;;;;30.98;15.90;;;;;;;;;;2055312;28;20264;-64
2021/07/02 00:42:44;;;;;;;24.13;14.35;;;;;;;;;;2055678;28;20209;-63
2021/07/02 00:43:52;;;;;;;30.27;14.48;;;;;;;;;;2068764;28;20657;-64
2021/07/02 00:44:53;;;;;;;30.00;14.95;;;;;;;;;;2060106;28;20186;-64
2021/07/02 00:45:54;;;;;;;25.38;14.98;;;;;;;;;;2062961;28;20550;-63
2021/07/02 00:46:54;;;;;;;29.90;14.32;;;;;;;;;;2056283;28;20174;-62
2021/07/02 00:47:54;;;;;;;31.73;15.18;;;;;;;;;;2062186;28;20174;-60
2021/07/02 00:48:55;;;;;;;31.90;15.68;;;;;;;;;;2054839;28;20194;-63
2021/07/02 00:49:55;;;;;;;27.77;15.75;;;;;;;;;;2061986;28;20213;-64
2021/07/02 00:50:55;;;;;;;30.48;14.82;;;;;;;;;;2057046;28;20181;-60
2021/07/02 00:51:56;;;;;;;28.20;16.73;;;;;;;;;;2062308;28;20252;-64
2021/07/02 00:52:56;;;;;;;29.90;16.02;;;;;;;;;;2056311;28;20657;-63
2021/07/02 00:53:58;;;;;;;23.80;15.13;;;;;;;;;;2061859;28;20181;-64
2021/07/02 00:54:59;;;;;;;25.92;16.40;;;;;;;;;;2057317;28;20229;-64
2021/07/02 00:56:00;;;;;;;24.63;15.20;;;;;;;;;;2061648;28;20181;-62
2021/07/02 00:57:03;;;;;;;32.88;14.85;;;;;;;;;;2058114;28;20293;-63
2021/07/02 00:58:04;;;;;;;26.10;14.68;;;;;;;;;;2061313;28;20336;-64
2021/07/02 00:59:04;;;;;;;27.27;15.52;;;;;;;;;;2057875;28;20193;-64
2021/07/02 01:00:07;;;;;;;26.05;15.57;;;;;;;;;;2060760;28;20177;-63
2021/07/02 01:01:16;;;;;;;22.10;14.52;;;;;;;;;;2053807;28;20640;-63
2021/07/02 01:02:17;;;;;;;28.55;15.52;;;;;;;;;;2054498;28;20162;-64
2021/07/02 01:03:18;;;;;;;26.55;15.25;;;;;;;;;;2053038;28;20169;-64
2021/07/02 01:04:19;;;;;;;32.45;15.10;;;;;;;;;;2056506;28;20163;-62
2021/07/02 01:05:21;;;;;;;28.35;15.50;;;;;;;;;;2055372;28;20634;-64
2021/07/02 01:06:21;;;;;;;27.10;15.60;;;;;;;;;;2053141;28;20198;-63
2021/07/02 01:07:22;;;;;;;26.38;15.52;;;;;;;;;;2050893;28;20263;-63
2021/07/02 01:08:23;;;;;;;30.13;14.73;;;;;;;;;;2056270;28;20178;-64
2021/07/02 01:09:23;;;;;;;26.13;15.93;;;;;;;;;;2058729;28;20284;-63
2021/07/02 01:10:24;;;;;;;30.38;16.02;;;;;;;;;;2058515;28;20261;-62
2021/07/02 01:11:25;;;;;;;24.50;15.05;;;;;;;;;;2054715;28;20290;-63
2021/07/02 01:12:27;;;;;;;25.38;16.00;;;;;;;;;;2053644;28;20190;-62
2021/07/02 01:13:27;;;;;;;30.10;15.10;;;;;;;;;;2056041;28;20174;-64
2021/07/02 01:14:28;;;;;;;23.23;13.75;;;;;;;;;;2059337;28;20170;-64
2021/07/02 01:15:29;;;;;;;31.40;14.80;;;;;;;;;;2049502;28;20695;-64
2021/07/02 01:16:43;;;;;;;29.42;16.13;;;;;;;;;;2065601;28;20169;-63
2021/07/02 01:17:44;;;;;;;28.45;15.40;;;;;;;;;;2057571;28;20659;-63
2021/07/02 01:18:44;;;;;;;30.77;15.98;;;;;;;;;;2057853;28;20183;-63
2021/07/02 01:19:48;;;;;;;28.27;16.20;;;;;;;;;;2056313;28;20174;-63
2021/07/02 01:20:52;;;;;;;25.13;15.13;;;;;;;;;;2063506;28;20286;-62
2021/07/02 01:21:54;;;;;;;29.80;15.82;;;;;;;;;;2048239;28;20270;-63
2021/07/02 01:22:56;;;;;;;34.40;16.95;;;;;;;;;;2049275;28;20198;-63
2021/07/02 01:23:57;;;;;;;24.73;15.73;;;;;;;;;;2061657;28;20182;-63
2021/07/02 01:24:57;;;;;;;29.55;16.20;;;;;;;;;;2057661;28;20202;-63
2021/07/02 01:25:58;;;;;;;31.23;16.77;;;;;;;;;;2055973;28;20182;-64
2021/07/02 01:26:59;;;;;;;30.55;16.80;;;;;;;;;;2057388;28;20730;-64
2021/07/02 01:28:01;;;;;;;28.63;16.63;;;;;;;;;;2055412;28;20722;-63
2021/07/02 01:29:02;;;;;;;29.13;16.48;;;;;;;;;;2054756;28;20225;-63
2021/07/02 01:30:04;;;;;;;30.10;17.23;;;;;;;;;;2059756;28;20170;-64
2021/07/02 01:31:04;;;;;;;34.72;17.83;;;;;;;;;;2066067;28;20190;-62
2021/07/02 01:32:05;;;;;;;31.80;18.63;;;;;;;;;;2060857;28;20197;-63
2021/07/02 01:33:05;;;;;;;31.13;17.52;;;;;;;;;;2061782;28;20189;-63
2021/07/02 01:34:07;;;;;;;32.58;17.63;;;;;;;;;;2062228;28;20170;-64
2021/07/02 01:35:08;;;;;;;33.47;18.13;;;;;;;;;;2052078;28;20178;-64
2021/07/02 01:36:14;;;;;;;37.63;17.60;;;;;;;;;;2060511;28;20658;-64
2021/07/02 01:37:16;;;;;;;35.00;18.70;;;;;;;;;;2060570;28;20202;-62
2021/07/02 01:38:16;;;;;;;33.50;17.10;;;;;;;;;;2060807;28;20205;-64
2021/07/02 01:39:18;;;;;;;34.40;19.27;;;;;;;;;;2060880;28;20194;-64
2021/07/02 01:40:19;;;;;;;32.92;18.45;;;;;;;;;;2061252;28;20162;-64
2021/07/02 01:41:20;;;;;;;33.47;18.77;;;;;;;;;;2056805;28;20179;-63
2021/07/02 01:42:21;;;;;;;32.08;17.70;;;;;;;;;;2054247;28;20171;-64
2021/07/02 01:43:22;;;;;;;38.10;19.73;;;;;;;;;;2059991;28;20201;-63
2021/07/02 01:44:23;;;;;;;32.90;17.77;;;;;;;;;;2061209;28;20244;-63
2021/07/02 01:45:23;;;;;;;32.80;19.15;;;;;;;;;;2065098;28;20692;-64
2021/07/02 01:46:23;;;;;;;35.28;18.83;;;;;;;;;;2060238;28;20260;-63
2021/07/02 01:47:24;;;;;;;33.28;19.13;;;;;;;;;;2048861;28;20167;-64
2021/07/02 01:48:25;;;;;;;34.65;18.90;;;;;;;;;;2043775;28;20174;-63
2021/07/02 01:49:27;;;;;;;36.50;20.85;;;;;;;;;;2062552;28;20231;-63
2021/07/02 01:50:27;;;;;;;37.20;20.17;;;;;;;;;;2057579;28;20190;-64
2021/07/02 01:51:28;;;;;;;31.10;20.05;;;;;;;;;;2062129;28;20166;-63
2021/07/02 01:52:29;;;;;;;38.72;21.55;;;;;;;;;;2050687;28;20202;-63
2021/07/02 01:53:29;;;;;;;37.22;20.15;;;;;;;;;;2052760;28;20178;-64
2021/07/02 01:54:30;;;;;;;42.38;21.38;;;;;;;;;;2058186;28;20182;-62
2021/07/02 01:55:31;;;;;;;37.38;20.15;;;;;;;;;;2062860;28;20165;-61
2021/07/02 01:56:33;;;;;;;41.28;21.48;;;;;;;;;;2054701;28;20663;-63
2021/07/02 01:57:34;;;;;;;37.15;21.35;;;;;;;;;;2057368;28;20174;-64
2021/07/02 01:58:41;;;;;;;33.20;20.35;;;;;;;;;;2055262;28;20220;-63
2021/07/02 01:59:56;;;;;;;37.28;21.05;;;;;;;;;;2060257;28;20213;-61
2021/07/02 02:00:56;;;;;;;35.08;21.08;;;;;;;;;;2067833;28;20312;-63
2021/07/02 02:01:57;;;;;;;34.10;20.90;;;;;;;;;;2060188;28;20205;-62
2021/07/02 02:02:59;;;;;;;39.25;21.20;;;;;;;;;;2058041;28;20210;-62
2021/07/02 02:04:01;;;;;;;41.58;21.90;;;;;;;;;;2063166;28;20197;-64
2021/07/02 02:05:04;;;;;;;31.88;20.48;;;;;;;;;;2060250;28;20182;-62
2021/07/02 02:06:05;;;;;;;36.28;21.23;;;;;;;;;;2060450;28;20192;-63
2021/07/02 02:07:06;;;;;;;37.95;21.17;;;;;;;;;;2061557;28;20542;-63
2021/07/02 02:08:07;;;;;;;34.72;20.85;;;;;;;;;;2060042;28;20177;-63
2021/07/02 02:09:08;;;;;;;43.63;21.40;;;;;;;;;;2052285;28;20181;-64
2021/07/02 02:10:09;;;;;;;40.95;21.90;;;;;;;;;;2052876;28;20171;-63
2021/07/02 02:11:10;;;;;;;39.72;21.33;;;;;;;;;;2063752;28;20158;-61
2021/07/02 02:12:16;;;;;;;37.08;21.80;;;;;;;;;;2056793;28;20170;-64
2021/07/02 02:13:21;;;;;;;35.58;21.08;;;;;;;;;;2054844;28;20237;-65
2021/07/02 02:14:28;;;;;;;38.50;21.40;;;;;;;;;;2054837;28;20185;-61
2021/07/02 02:15:31;;;;;;;34.22;20.10;;;;;;;;;;2052885;28;20180;-63
2021/07/02 02:16:31;;;;;;;38.80;20.35;;;;;;;;;;2062652;28;20264;-63
2021/07/02 02:17:38;;;;;;;35.90;21.40;;;;;;;;;;2060120;28;20170;-54
2021/07/02 02:18:38;;;;;;;38.22;20.75;;;;;;;;;;2063507;28;20170;-57
2021/07/02 02:19:38;;;;;;;34.70;21.88;;;;;;;;;;2059036;28;20673;-55
2021/07/02 02:20:39;;;;;;;34.70;20.38;;;;;;;;;;2063617;28;20181;-56
2021/07/02 02:21:39;;;;;;;35.63;21.02;;;;;;;;;;2058266;28;20265;-56
2021/07/02 02:22:40;;;;;;;35.17;21.38;;;;;;;;;;2055762;28;20634;-54
2021/07/02 02:23:41;;;;;;;41.50;21.95;;;;;;;;;;2048666;28;20213;-55
2021/07/02 02:24:42;;;;;;;40.05;22.45;;;;;;;;;;2064446;28;20174;-55
2021/07/02 02:25:43;;;;;;;43.45;22.38;;;;;;;;;;2049907;28;20182;-57
2021/07/02 02:26:44;;;;;;;37.58;21.00;;;;;;;;;;2065117;28;20181;-56
2021/07/02 02:27:47;;;;;;;40.33;21.90;;;;;;;;;;2056050;28;20190;-57
2021/07/02 02:28:48;;;;;;;40.08;21.50;;;;;;;;;;2063536;28;20178;-57
2021/07/02 02:29:48;;;;;;;38.65;21.92;;;;;;;;;;2040397;29;20203;-56
2021/07/02 02:30:48;;;;;;;36.40;21.67;;;;;;;;;;2040128;29;20547;-56
2021/07/02 02:31:49;;;;;;;35.20;22.83;;;;;;;;;;2064336;28;20795;-57
2021/07/02 02:32:53;;;;;;;31.10;20.83;;;;;;;;;;2062966;28;20253;-57
2021/07/02 02:33:59;;;;;;;35.42;20.83;;;;;;;;;;2073059;28;20372;-57
2021/07/02 02:35:00;;;;;;;33.28;20.95;;;;;;;;;;2070599;28;20550;-57
2021/07/02 02:36:00;;;;;;;37.03;22.33;;;;;;;;;;2054400;28;20166;-59
2021/07/02 02:37:01;;;;;;;34.70;22.50;;;;;;;;;;2058611;28;20182;-58
2021/07/02 02:38:03;;;;;;;33.67;21.08;;;;;;;;;;2062368;28;20170;-56
2021/07/02 02:39:06;;;;;;;39.20;21.85;;;;;;;;;;2051589;28;20178;-53
2021/07/02 02:40:08;;;;;;;31.52;20.30;;;;;;;;;;2046361;28;20179;-56
2021/07/02 02:41:08;;;;;;;36.88;22.63;;;;;;;;;;2055123;28;20649;-56
2021/07/02 02:42:09;;;;;;;32.40;20.70;;;;;;;;;;2059585;28;20321;-53
2021/07/02 02:43:10;;;;;;;36.92;22.55;;;;;;;;;;2052842;28;20667;-57
2021/07/02 02:44:11;;;;;;;38.55;22.55;;;;;;;;;;2061195;28;20183;-53
2021/07/02 02:45:12;;;;;;;41.90;22.52;;;;;;;;;;2059932;28;20161;-56
2021/07/02 02:46:12;;;;;;;39.53;21.55;;;;;;;;;;2060440;28;20194;-56
2021/07/02 02:47:13;;;;;;;31.58;21.23;;;;;;;;;;2048262;28;20178;-58
2021/07/02 02:48:13;;;;;;;36.60;22.38;;;;;;;;;;2068318;28;20166;-57
2021/07/02 02:49:14;;;;;;;36.22;23.25;;;;;;;;;;2076904;28;20180;-57
2021/07/02 02:50:14;;;;;;;42.47;23.48;;;;;;;;;;2062214;28;20177;-57
2021/07/02 02:51:15;;;;;;;40.72;21.92;;;;;;;;;;2060104;28;20178;-56
2021/07/02 02:52:16;;;;;;;39.55;21.65;;;;;;;;;;2066473;28;20762;-56
2021/07/02 02:53:16;;;;;;;37.28;23.02;;;;;;;;;;2060587;28;20216;-56
2021/07/02 02:54:17;;;;;;;39.15;22.75;;;;;;;;;;2051889;28;20163;-54
2021/07/02 02:55:18;;;;;;;40.75;22.88;;;;;;;;;;2049315;28;20261;-53
2021/07/02 02:56:18;;;;;;;36.33;22.20;;;;;;;;;;2060266;28;20166;-56
2021/07/02 02:57:19;;;;;;;37.63;21.67;;;;;;;;;;2061502;28;20252;-56
2021/07/02 02:58:22;;;;;;;33.17;20.88;;;;;;;;;;2060221;28;20256;-57
2021/07/02 02:59:23;;;;;;;37.45;23.20;;;;;;;;;;2048477;28;20185;-56
2021/07/02 03:00:23;;;;;;;36.67;22.80;;;;;;;;;;2065005;28;20197;-58
2021/07/02 03:01:24;;;;;;;34.83;22.40;;;;;;;;;;2064767;28;20173;-55
2021/07/02 03:02:26;;;;;;;38.03;23.33;;;;;;;;;;2048676;29;20199;-56
2021/07/02 03:03:29;;;;;;;31.60;23.05;;;;;;;;;;2049147;29;20544;-55
2021/07/02 03:04:31;;;;;;;34.97;21.77;;;;;;;;;;2048760;29;20202;-54
2021/07/02 03:05:32;;;;;;;37.03;21.98;;;;;;;;;;2049050;29;20183;-55
2021/07/02 03:06:32;;;;;;;35.72;22.95;;;;;;;;;;2048866;28;20175;-54
2021/07/02 03:07:33;;;;;;;41.85;22.27;;;;;;;;;;2057021;28;20183;-57
2021/07/02 03:08:34;;;;;;;37.10;21.77;;;;;;;;;;2056751;28;20184;-55
2021/07/02 03:09:35;;;;;;;38.92;23.38;;;;;;;;;;2048983;29;20263;-56
2021/07/02 03:10:36;;;;;;;33.92;20.95;;;;;;;;;;2056957;28;20174;-55
2021/07/02 03:11:37;;;;;;;33.58;20.73;;;;;;;;;;2064643;28;20923;-59
2021/07/02 03:12:38;;;;;;;36.55;23.33;;;;;;;;;;2052457;28;20288;-57
2021/07/02 03:13:38;;;;;;;31.65;21.30;;;;;;;;;;2064972;28;20178;-56
2021/07/02 03:14:39;;;;;;;39.70;21.73;;;;;;;;;;2064822;28;20189;-56
2021/07/02 03:15:39;;;;;;;41.78;21.90;;;;;;;;;;2056931;28;20655;-57
2021/07/02 03:16:40;;;;;;;38.85;22.63;;;;;;;;;;2045720;28;20187;-56
2021/07/02 03:17:41;;;;;;;33.45;21.30;;;;;;;;;;2056152;28;20181;-57
2021/07/02 03:18:42;;;;;;;40.03;22.33;;;;;;;;;;2055935;28;20535;-56
2021/07/02 03:19:42;;;;;;;40.00;22.17;;;;;;;;;;2064063;28;20203;-55
2021/07/02 03:20:44;;;;;;;37.25;22.30;;;;;;;;;;2052495;28;20646;-56
2021/07/02 03:21:46;;;;;;;34.25;21.85;;;;;;;;;;2040446;28;20267;-57
2021/07/02 03:22:46;;;;;;;37.42;22.73;;;;;;;;;;2051893;28;20253;-55
2021/07/02 03:23:47;;;;;;;37.85;22.02;;;;;;;;;;2063946;28;20369;-55
2021/07/02 03:24:47;;;;;;;36.60;22.00;;;;;;;;;;2056413;28;20205;-56
2021/07/02 03:25:49;;;;;;;33.30;20.80;;;;;;;;;;2063506;28;20197;-57
2021/07/02 03:26:50;;;;;;;37.85;22.23;;;;;;;;;;2044923;28;20183;-56
2021/07/02 03:27:51;;;;;;;34.72;22.65;;;;;;;;;;2048664;29;20282;-55
2021/07/02 03:28:52;;;;;;;33.28;21.27;;;;;;;;;;2049023;28;20616;-57
2021/07/02 03:29:52;;;;;;;35.60;21.15;;;;;;;;;;2063213;28;20867;-54
2021/07/02 03:30:52;;;;;;;38.00;21.67;;;;;;;;;;2056779;28;20819;-59
2021/07/02 03:31:53;;;;;;;34.13;20.65;;;;;;;;;;2062541;28;20209;-57
2021/07/02 03:32:53;;;;;;;33.65;21.67;;;;;;;;;;2056781;28;20288;-60
2021/07/02 03:33:54;;;;;;;34.88;21.63;;;;;;;;;;2062612;28;20830;-58
2021/07/02 03:34:54;;;;;;;34.50;20.52;;;;;;;;;;2057229;28;20296;-58
2021/07/02 03:35:59;;;;;;;41.80;22.30;;;;;;;;;;2061830;28;20193;-56
2021/07/02 03:36:59;;;;;;;31.95;20.50;;;;;;;;;;2050110;28;20186;-57
2021/07/02 03:38:00;;;;;;;29.92;20.38;;;;;;;;;;2053878;28;20639;-56
2021/07/02 03:39:02;;;;;;;34.53;21.52;;;;;;;;;;2066099;28;20839;-57
2021/07/02 03:40:04;;;;;;;34.45;20.95;;;;;;;;;;2077174;28;20769;-59
2021/07/02 03:41:06;;;;;;;37.67;21.10;;;;;;;;;;2050041;28;20190;-58
2021/07/02 03:42:07;;;;;;;35.58;21.30;;;;;;;;;;2047667;28;20612;-53
2021/07/02 03:43:07;;;;;;;35.38;21.42;;;;;;;;;;2052655;28;20186;-58
2021/07/02 03:44:08;;;;;;;35.67;22.25;;;;;;;;;;2049513;28;20181;-58
2021/07/02 03:45:09;;;;;;;35.50;21.85;;;;;;;;;;2059091;28;20180;-57
2021/07/02 03:46:11;;;;;;;36.30;21.88;;;;;;;;;;2061615;28;20183;-56
2021/07/02 03:47:13;;;;;;;33.97;20.77;;;;;;;;;;2060151;28;20516;-55
2021/07/02 03:48:14;;;;;;;36.90;21.92;;;;;;;;;;2060436;28;20212;-56
2021/07/02 03:49:15;;;;;;;37.63;20.65;;;;;;;;;;2062480;28;20256;-52
2021/07/02 03:50:16;;;;;;;29.92;20.83;;;;;;;;;;2059658;28;20630;-57
2021/07/02 03:51:16;;;;;;;34.25;21.90;;;;;;;;;;2059483;28;20166;-52
2021/07/02 03:52:16;;;;;;;33.53;20.52;;;;;;;;;;2059384;28;20170;-56
2021/07/02 03:53:17;;;;;;;34.30;20.88;;;;;;;;;;2056214;28;20690;-54
2021/07/02 03:54:17;;;;;;;33.58;21.23;;;;;;;;;;2059577;28;20182;-53
2021/07/02 03:55:17;;;;;;;36.17;22.60;;;;;;;;;;2055689;28;20211;-53
2021/07/02 03:56:18;;;;;;;33.67;20.88;;;;;;;;;;2061123;28;20169;-55
2021/07/02 03:57:21;;;;;;;32.67;21.50;;;;;;;;;;2056320;28;20182;-55
2021/07/02 03:58:21;;;;;;;39.00;21.80;;;;;;;;;;2061586;28;20702;-56
2021/07/02 03:59:21;;;;;;;34.67;20.30;;;;;;;;;;2061440;28;20180;-54
2021/07/02 04:00:22;;;;;;;36.78;21.45;;;;;;;;;;2064727;28;20169;-54
2021/07/02 04:01:22;;;;;;;31.90;21.30;;;;;;;;;;2053144;28;20655;-55
2021/07/02 04:02:22;;;;;;;35.55;21.80;;;;;;;;;;2059616;28;20162;-60
2021/07/02 04:03:23;;;;;;;33.80;21.98;;;;;;;;;;2061073;28;20176;-60
2021/07/02 04:04:23;;;;;;;34.65;22.13;;;;;;;;;;2062039;28;20216;-55
2021/07/02 04:05:23;;;;;;;35.30;21.45;;;;;;;;;;2059366;28;20622;-56
2021/07/02 04:06:23;;;;;;;30.50;21.33;;;;;;;;;;2057526;28;20174;-55
2021/07/02 04:07:25;;;;;;;30.38;20.90;;;;;;;;;;2059353;28;20711;-54
2021/07/02 04:08:25;;;;;;;32.97;21.02;;;;;;;;;;2058923;28;20226;-54
2021/07/02 04:09:26;;;;;;;36.03;21.17;;;;;;;;;;2057507;28;20198;-55
2021/07/02 04:10:26;;;;;;;35.63;21.10;;;;;;;;;;2058866;28;20632;-57
2021/07/02 04:11:26;;;;;;;31.98;20.50;;;;;;;;;;2061703;28;20177;-56
2021/07/02 04:12:26;;;;;;;33.35;20.63;;;;;;;;;;2058584;28;20195;-54
2021/07/02 04:13:27;;;;;;;37.25;20.02;;;;;;;;;;2056280;28;20624;-54
2021/07/02 04:14:27;;;;;;;33.78;21.23;;;;;;;;;;2054163;28;20209;-55
2021/07/02 04:15:28;;;;;;;29.35;21.02;;;;;;;;;;2055766;28;20198;-58
2021/07/02 04:16:28;;;;;;;33.33;20.40;;;;;;;;;;2062621;28;20166;-55
2021/07/02 04:17:28;;;;;;;39.30;21.50;;;;;;;;;;2058420;28;20178;-56
2021/07/02 04:18:29;;;;;;;36.15;22.95;;;;;;;;;;2062324;28;20292;-54
2021/07/02 04:19:29;;;;;;;33.33;20.95;;;;;;;;;;2054436;28;20183;-54
2021/07/02 04:20:29;;;;;;;41.08;22.17;;;;;;;;;;2060307;28;20169;-57
2021/07/02 04:21:29;;;;;;;38.53;21.60;;;;;;;;;;2058433;28;20642;-54
2021/07/02 04:22:30;;;;;;;33.38;22.55;;;;;;;;;;2057515;28;20190;-56
2021/07/02 04:23:30;;;;;;;36.03;21.58;;;;;;;;;;2059042;28;20182;-55
2021/07/02 04:24:30;;;;;;;34.78;20.75;;;;;;;;;;2062648;28;20177;-55
2021/07/02 04:25:30;;;;;;;34.22;20.38;;;;;;;;;;2053788;28;20201;-54
2021/07/02 04:26:32;;;;;;;35.75;22.00;;;;;;;;;;2061133;28;20169;-55
2021/07/02 04:27:32;;;;;;;38.20;21.00;;;;;;;;;;2058137;28;20179;-53
2021/07/02 04:28:32;;;;;;;35.42;21.25;;;;;;;;;;2052473;28;20186;-52
2021/07/02 04:29:33;;;;;;;34.10;22.00;;;;;;;;;;2061286;28;20205;-54
2021/07/02 04:30:33;;;;;;;36.53;21.02;;;;;;;;;;2052109;28;20174;-54
2021/07/02 04:31:34;;;;;;;38.00;22.55;;;;;;;;;;2061812;28;20196;-55
2021/07/02 04:32:36;;;;;;;29.75;19.63;;;;;;;;;;2057149;28;20245;-54
2021/07/02 04:33:36;;;;;;;36.47;21.67;;;;;;;;;;2063151;28;20182;-53
2021/07/02 04:34:37;;;;;;;31.00;19.45;;;;;;;;;;2063456;28;20174;-56
2021/07/02 04:35:37;;;;;;;34.97;22.00;;;;;;;;;;2057255;28;20174;-53
2021/07/02 04:36:38;;;;;;;39.30;21.25;;;;;;;;;;2062775;28;20177;-54
2021/07/02 04:37:38;;;;;;;31.55;20.98;;;;;;;;;;2057500;28;20564;-53
2021/07/02 04:38:39;;;;;;;30.42;21.02;;;;;;;;;;2063380;28;20173;-58
2021/07/02 04:39:39;;;;;;;30.27;20.92;;;;;;;;;;2056695;28;20182;-58
2021/07/02 04:40:39;;;;;;;36.78;21.98;;;;;;;;;;2064538;28;20177;-57
2021/07/02 04:41:40;;;;;;;33.63;21.35;;;;;;;;;;2056553;28;20290;-54
2021/07/02 04:42:40;;;;;;;33.70;21.48;;;;;;;;;;2063883;28;20693;-54
2021/07/02 04:43:40;;;;;;;30.50;20.67;;;;;;;;;;2056399;28;20208;-55
2021/07/02 04:44:41;;;;;;;31.75;20.88;;;;;;;;;;2063657;28;20183;-57
2021/07/02 04:45:41;;;;;;;34.67;19.70;;;;;;;;;;2055769;28;20182;-57
2021/07/02 04:46:42;;;;;;;31.02;20.40;;;;;;;;;;2063655;28;20173;-57
2021/07/02 04:47:42;;;;;;;38.60;22.63;;;;;;;;;;2055941;28;20185;-57
2021/07/02 04:48:42;;;;;;;31.33;20.35;;;;;;;;;;2063946;28;20224;-56
2021/07/02 04:49:42;;;;;;;32.03;20.33;;;;;;;;;;2053979;28;20519;-56
2021/07/02 04:50:43;;;;;;;31.70;19.38;;;;;;;;;;2063956;28;20220;-55
2021/07/02 04:51:43;;;;;;;30.80;20.67;;;;;;;;;;2055701;28;20183;-55
2021/07/02 04:52:43;;;;;;;30.65;20.65;;;;;;;;;;2063331;28;20732;-58
2021/07/02 04:53:44;;;;;;;31.92;20.13;;;;;;;;;;2052416;28;20215;-57
2021/07/02 04:54:44;;;;;;;33.50;20.70;;;;;;;;;;2055951;28;20209;-56
2021/07/02 04:55:44;;;;;;;37.25;21.25;;;;;;;;;;2055842;28;20200;-57
2021/07/02 04:56:48;;;;;;;38.47;20.55;;;;;;;;;;2055617;28;20183;-52
2021/07/02 04:57:48;;;;;;;29.55;21.35;;;;;;;;;;2052659;28;20205;-57
2021/07/02 04:58:54;;;;;;;30.13;19.52;;;;;;;;;;2063782;28;20176;-57
2021/07/02 04:59:58;;;;;;;35.90;20.58;;;;;;;;;;2056836;28;20213;-59
2021/07/02 05:00:59;;;;;;;34.20;21.08;;;;;;;;;;2057128;28;20233;-58
2021/07/02 05:01:59;;;;;;;34.65;20.90;;;;;;;;;;2055208;28;20602;-59
2021/07/02 05:02:59;;;;;;;33.33;19.85;;;;;;;;;;2054525;28;20765;-57
2021/07/02 05:04:00;;;;;;;33.22;21.00;;;;;;;;;;2063090;28;20174;-58
2021/07/02 05:05:00;;;;;;;31.30;21.13;;;;;;;;;;2059692;28;20182;-59
2021/07/02 05:06:05;;;;;;;32.30;19.52;;;;;;;;;;2062646;28;20631;-55
2021/07/02 05:07:05;;;;;;;34.63;20.25;;;;;;;;;;2056018;28;20281;-55
2021/07/02 05:08:05;;;;;;;32.70;21.55;;;;;;;;;;2063683;28;20170;-54
2021/07/02 05:09:06;;;;;;;30.25;19.70;;;;;;;;;;2056022;28;20239;-50
2021/07/02 05:10:07;;;;;;;30.65;20.17;;;;;;;;;;2056325;28;20202;-55
2021/07/02 05:11:10;;;;;;;30.08;18.70;;;;;;;;;;2061441;28;20170;-57
2021/07/02 05:12:11;;;;;;;36.55;20.95;;;;;;;;;;2057587;28;20229;-58
2021/07/02 05:13:11;;;;;;;34.13;20.58;;;;;;;;;;2062050;28;20588;-56
2021/07/02 05:14:11;;;;;;;41.90;21.50;;;;;;;;;;2062293;28;20212;-53
2021/07/02 05:15:12;;;;;;;32.20;20.80;;;;;;;;;;2062584;28;20269;-58
2021/07/02 05:16:12;;;;;;;30.63;20.80;;;;;;;;;;2061668;28;20219;-50
2021/07/02 05:17:13;;;;;;;31.75;21.27;;;;;;;;;;2061351;28;20190;-53
2021/07/02 05:18:13;;;;;;;32.40;20.83;;;;;;;;;;2062384;28;20171;-52
2021/07/02 05:19:14;;;;;;;35.38;21.40;;;;;;;;;;2060966;28;20174;-57
2021/07/02 05:20:15;;;;;;;33.88;21.65;;;;;;;;;;2058196;28;20194;-57
2021/07/02 05:21:15;;;;;;;33.10;21.67;;;;;;;;;;2061627;28;20647;-57
2021/07/02 05:22:21;;;;;;;34.72;21.08;;;;;;;;;;2062375;28;20705;-56
2021/07/02 05:23:21;;;;;;;31.35;20.77;;;;;;;;;;2062904;28;20174;-57
2021/07/02 05:24:22;;;;;;;30.85;20.67;;;;;;;;;;2057225;28;20195;-58
2021/07/02 05:25:22;;;;;;;37.92;21.65;;;;;;;;;;2057958;28;20202;-56
2021/07/02 05:26:23;;;;;;;31.85;21.00;;;;;;;;;;2057753;28;20170;-57
2021/07/02 05:27:24;;;;;;;27.65;20.08;;;;;;;;;;2055812;28;20319;-54
2021/07/02 05:28:24;;;;;;;32.70;20.00;;;;;;;;;;2060385;28;20178;-58
2021/07/02 05:29:24;;;;;;;34.15;20.83;;;;;;;;;;2059638;28;20193;-58
2021/07/02 05:30:26;;;;;;;32.30;21.55;;;;;;;;;;2053136;28;20187;-55
2021/07/02 05:31:26;;;;;;;28.00;19.65;;;;;;;;;;2057858;28;20211;-55
2021/07/02 05:32:27;;;;;;;33.80;20.92;;;;;;;;;;2049818;28;20272;-56
2021/07/02 05:33:27;;;;;;;32.80;20.70;;;;;;;;;;2055746;28;20660;-56
2021/07/02 05:34:27;;;;;;;26.77;19.42;;;;;;;;;;2063100;28;20206;-54
2021/07/02 05:35:27;;;;;;;29.40;20.35;;;;;;;;;;2060666;28;20178;-55
2021/07/02 05:36:27;;;;;;;30.77;20.25;;;;;;;;;;2061842;28;20168;-54
2021/07/02 05:37:28;;;;;;;30.90;20.30;;;;;;;;;;2059520;28;20238;-57
2021/07/02 05:38:28;;;;;;;29.10;19.92;;;;;;;;;;2062644;28;20181;-56
2021/07/02 05:39:29;;;;;;;30.95;20.05;;;;;;;;;;2058702;28;20175;-57
2021/07/02 05:40:29;;;;;;;29.98;20.15;;;;;;;;;;2062258;28;20177;-57
2021/07/02 05:41:29;;;;;;;31.98;20.35;;;;;;;;;;2050442;28;20175;-54
2021/07/02 05:42:29;;;;;;;31.00;21.13;;;;;;;;;;2060930;28;20694;-57
2021/07/02 05:43:30;;;;;;;32.85;20.38;;;;;;;;;;2057178;28;20281;-58
2021/07/02 05:44:30;;;;;;;33.58;20.55;;;;;;;;;;2062994;28;20189;-53
2021/07/02 05:45:31;;;;;;;32.25;20.02;;;;;;;;;;2059778;28;20174;-53
2021/07/02 05:46:31;;;;;;;31.33;20.75;;;;;;;;;;2064364;28;20261;-55
2021/07/02 05:47:35;;;;;;;29.52;19.75;;;;;;;;;;2066529;28;20176;-57
2021/07/02 05:48:35;;;;;;;33.25;21.48;;;;;;;;;;2059668;28;20217;-54
2021/07/02 05:49:36;;;;;;;29.90;19.95;;;;;;;;;;2057686;28;20561;-54
2021/07/02 05:50:36;;;;;;;29.23;20.20;;;;;;;;;;2064539;28;20212;-52
2021/07/02 05:51:36;;;;;;;26.65;20.17;;;;;;;;;;2058397;28;20186;-53
2021/07/02 05:52:36;;;;;;;32.25;21.05;;;;;;;;;;2065104;28;20193;-52
2021/07/02 05:53:37;;;;;;;29.35;20.55;;;;;;;;;;2065307;28;20197;-53
2021/07/02 05:54:37;;;;;;;29.98;20.00;;;;;;;;;;2057887;28;20186;-52